sensor_id;sensor_type;location;lat;lon;timestamp;temperature;humidity
13721;DHT22;6932;51.438;5.470;2022-11-02T00:00:21;20.80;73.90
13721;DHT22;6932;51.438;5.470;2022-11-02T00:02:47;20.80;73.90
13721;DHT22;6932;51.438;5.470;2022-11-02T00:05:13;20.80;73.90
13721;DHT22;6932;51.438;5.470;2022-11-02T00:07:40;20.90;74.00
13721;DHT22;6932;51.438;5.470;2022-11-02T00:10:07;20.90;74.30
13721;DHT22;6932;51.438;5.470;2022-11-02T00:12:34;20.80;74.00
13721;DHT22;6932;51.438;5.470;2022-11-02T00:15:00;20.90;74.00
13721;DHT22;6932;51.438;5.470;2022-11-02T00:17:27;20.90;74.00
13721;DHT22;6932;51.438;5.470;2022-11-02T00:19:53;20.90;74.00
13721;DHT22;6932;51.438;5.470;2022-11-02T00:22:19;20.90;74.00
13721;DHT22;6932;51.438;5.470;2022-11-02T00:24:45;20.90;73.90
13721;DHT22;6932;51.438;5.470;2022-11-02T00:27:11;20.90;73.80
13721;DHT22;6932;51.438;5.470;2022-11-02T00:29:37;20.90;73.70
13721;DHT22;6932;51.438;5.470;2022-11-02T00:32:03;20.90;73.60
13721;DHT22;6932;51.438;5.470;2022-11-02T00:34:28;21.00;73.60
13721;DHT22;6932;51.438;5.470;2022-11-02T00:36:54;20.90;73.60
13721;DHT22;6932;51.438;5.470;2022-11-02T00:39:26;21.00;73.60
13721;DHT22;6932;51.438;5.470;2022-11-02T00:41:52;20.90;73.60
13721;DHT22;6932;51.438;5.470;2022-11-02T00:44:17;21.00;73.70
13721;DHT22;6932;51.438;5.470;2022-11-02T00:46:43;21.00;73.70
13721;DHT22;6932;51.438;5.470;2022-11-02T00:49:09;21.00;73.80
13721;DHT22;6932;51.438;5.470;2022-11-02T00:51:35;21.00;73.80
13721;DHT22;6932;51.438;5.470;2022-11-02T00:54:00;21.00;73.80
13721;DHT22;6932;51.438;5.470;2022-11-02T00:56:38;21.00;73.80
13721;DHT22;6932;51.438;5.470;2022-11-02T00:59:13;21.00;73.70
13721;DHT22;6932;51.438;5.470;2022-11-02T01:01:39;21.00;73.70
13721;DHT22;6932;51.438;5.470;2022-11-02T01:04:15;21.00;73.70
13721;DHT22;6932;51.438;5.470;2022-11-02T01:07:19;21.00;73.40
13721;DHT22;6932;51.438;5.470;2022-11-02T01:09:45;21.10;73.30
13721;DHT22;6932;51.438;5.470;2022-11-02T01:12:11;21.00;73.30
13721;DHT22;6932;51.438;5.470;2022-11-02T01:15:06;21.00;73.30
13721;DHT22;6932;51.438;5.470;2022-11-02T01:17:52;21.00;73.20
13721;DHT22;6932;51.438;5.470;2022-11-02T01:20:17;21.00;72.70
13721;DHT22;6932;51.438;5.470;2022-11-02T01:22:50;21.00;72.50
13721;DHT22;6932;51.438;5.470;2022-11-02T01:25:25;21.00;71.90
13721;DHT22;6932;51.438;5.470;2022-11-02T01:27:50;20.90;71.80
13721;DHT22;6932;51.438;5.470;2022-11-02T01:30:16;20.90;71.60
13721;DHT22;6932;51.438;5.470;2022-11-02T01:32:42;20.90;71.40
13721;DHT22;6932;51.438;5.470;2022-11-02T01:35:08;20.90;71.30
13721;DHT22;6932;51.438;5.470;2022-11-02T01:37:34;20.90;71.10
13721;DHT22;6932;51.438;5.470;2022-11-02T01:40:00;20.80;71.00
13721;DHT22;6932;51.438;5.470;2022-11-02T01:42:27;20.80;71.00
13721;DHT22;6932;51.438;5.470;2022-11-02T01:44:53;20.80;70.80
13721;DHT22;6932;51.438;5.470;2022-11-02T01:47:31;20.80;70.80
13721;DHT22;6932;51.438;5.470;2022-11-02T01:50:14;20.70;70.80
13721;DHT22;6932;51.438;5.470;2022-11-02T01:52:47;20.70;70.80
13721;DHT22;6932;51.438;5.470;2022-11-02T01:55:22;20.70;70.90
13721;DHT22;6932;51.438;5.470;2022-11-02T01:58:07;20.70;71.00
13721;DHT22;6932;51.438;5.470;2022-11-02T02:00:34;20.70;71.20
13721;DHT22;6932;51.438;5.470;2022-11-02T02:03:15;20.70;71.20
13721;DHT22;6932;51.438;5.470;2022-11-02T02:05:58;20.60;71.20
13721;DHT22;6932;51.438;5.470;2022-11-02T02:08:31;20.60;71.40
13721;DHT22;6932;51.438;5.470;2022-11-02T02:10:58;20.60;71.50
13721;DHT22;6932;51.438;5.470;2022-11-02T02:13:25;20.50;71.60
13721;DHT22;6932;51.438;5.470;2022-11-02T02:16:11;20.50;71.80
13721;DHT22;6932;51.438;5.470;2022-11-02T02:18:47;20.50;72.00
13721;DHT22;6932;51.438;5.470;2022-11-02T02:30:08;20.40;72.50
13721;DHT22;6932;51.438;5.470;2022-11-02T02:38:32;20.40;72.70
13721;DHT22;6932;51.438;5.470;2022-11-02T02:42:05;20.30;72.80
13721;DHT22;6932;51.438;5.470;2022-11-02T02:44:10;20.40;72.90
13721;DHT22;6932;51.438;5.470;2022-11-02T02:49:30;20.30;72.80
13721;DHT22;6932;51.438;5.470;2022-11-02T02:52:01;20.30;72.90
13721;DHT22;6932;51.438;5.470;2022-11-02T02:54:40;20.30;72.80
13721;DHT22;6932;51.438;5.470;2022-11-02T02:57:12;20.30;72.80
13721;DHT22;6932;51.438;5.470;2022-11-02T02:59:43;20.20;72.70
13721;DHT22;6932;51.438;5.470;2022-11-02T03:02:29;20.20;72.60
13721;DHT22;6932;51.438;5.470;2022-11-02T03:04:58;20.20;72.60
13721;DHT22;6932;51.438;5.470;2022-11-02T03:07:27;20.20;72.40
13721;DHT22;6932;51.438;5.470;2022-11-02T03:10:19;20.20;72.40
13721;DHT22;6932;51.438;5.470;2022-11-02T03:13:28;20.20;72.40
13721;DHT22;6932;51.438;5.470;2022-11-02T03:16:06;20.20;72.30
13721;DHT22;6932;51.438;5.470;2022-11-02T03:24:57;20.20;72.00
13721;DHT22;6932;51.438;5.470;2022-11-02T03:30:25;20.10;71.90
13721;DHT22;6932;51.438;5.470;2022-11-02T03:33:11;20.10;72.00
13721;DHT22;6932;51.438;5.470;2022-11-02T03:36:09;20.10;72.00
13721;DHT22;6932;51.438;5.470;2022-11-02T03:39:12;20.10;72.10
13721;DHT22;6932;51.438;5.470;2022-11-02T03:41:42;20.10;72.10
13721;DHT22;6932;51.438;5.470;2022-11-02T03:44:14;20.10;72.00
13721;DHT22;6932;51.438;5.470;2022-11-02T03:46:45;20.10;72.00
13721;DHT22;6932;51.438;5.470;2022-11-02T03:49:17;20.10;72.00
13721;DHT22;6932;51.438;5.470;2022-11-02T03:51:45;20.10;72.10
13721;DHT22;6932;51.438;5.470;2022-11-02T03:57:18;20.10;72.10
13721;DHT22;6932;51.438;5.470;2022-11-02T03:59:49;20.10;72.20
13721;DHT22;6932;51.438;5.470;2022-11-02T04:02:16;20.10;72.40
13721;DHT22;6932;51.438;5.470;2022-11-02T04:04:48;20.10;72.50
13721;DHT22;6932;51.438;5.470;2022-11-02T04:07:19;20.10;72.60
13721;DHT22;6932;51.438;5.470;2022-11-02T04:09:49;20.10;72.70
13721;DHT22;6932;51.438;5.470;2022-11-02T04:12:15;20.10;72.70
13721;DHT22;6932;51.438;5.470;2022-11-02T04:14:59;20.10;72.70
13721;DHT22;6932;51.438;5.470;2022-11-02T04:17:25;20.10;72.60
13721;DHT22;6932;51.438;5.470;2022-11-02T04:20:10;20.00;72.50
13721;DHT22;6932;51.438;5.470;2022-11-02T04:22:36;20.10;72.60
13721;DHT22;6932;51.438;5.470;2022-11-02T04:25:21;20.00;72.60
13721;DHT22;6932;51.438;5.470;2022-11-02T04:27:51;20.00;72.50
13721;DHT22;6932;51.438;5.470;2022-11-02T04:30:22;20.00;72.60
13721;DHT22;6932;51.438;5.470;2022-11-02T04:32:49;20.00;72.70
13721;DHT22;6932;51.438;5.470;2022-11-02T04:35:34;20.00;72.80
13721;DHT22;6932;51.438;5.470;2022-11-02T04:38:01;20.00;72.80
13721;DHT22;6932;51.438;5.470;2022-11-02T04:40:45;20.00;72.90
13721;DHT22;6932;51.438;5.470;2022-11-02T04:43:11;20.00;72.90
13721;DHT22;6932;51.438;5.470;2022-11-02T04:45:37;20.00;73.00
13721;DHT22;6932;51.438;5.470;2022-11-02T04:48:08;19.90;73.00
13721;DHT22;6932;51.438;5.470;2022-11-02T04:50:35;19.90;73.00
13721;DHT22;6932;51.438;5.470;2022-11-02T04:53:03;19.90;73.00
13721;DHT22;6932;51.438;5.470;2022-11-02T04:55:32;19.90;73.00
13721;DHT22;6932;51.438;5.470;2022-11-02T04:57:58;19.90;73.00
13721;DHT22;6932;51.438;5.470;2022-11-02T05:00:24;19.90;73.00
13721;DHT22;6932;51.438;5.470;2022-11-02T05:02:50;19.80;73.00
13721;DHT22;6932;51.438;5.470;2022-11-02T05:05:19;19.80;73.00
13721;DHT22;6932;51.438;5.470;2022-11-02T05:07:45;19.80;73.00
13721;DHT22;6932;51.438;5.470;2022-11-02T05:10:11;19.80;72.90
13721;DHT22;6932;51.438;5.470;2022-11-02T05:12:37;19.80;72.90
13721;DHT22;6932;51.438;5.470;2022-11-02T05:15:03;19.80;73.00
13721;DHT22;6932;51.438;5.470;2022-11-02T05:17:30;19.80;72.80
13721;DHT22;6932;51.438;5.470;2022-11-02T05:19:56;19.80;72.80
13721;DHT22;6932;51.438;5.470;2022-11-02T05:22:22;19.80;72.80
13721;DHT22;6932;51.438;5.470;2022-11-02T05:24:47;19.80;72.80
13721;DHT22;6932;51.438;5.470;2022-11-02T05:27:14;19.80;72.70
13721;DHT22;6932;51.438;5.470;2022-11-02T05:29:40;19.80;72.60
13721;DHT22;6932;51.438;5.470;2022-11-02T05:32:06;19.80;72.60
13721;DHT22;6932;51.438;5.470;2022-11-02T05:34:32;19.80;72.50
13721;DHT22;6932;51.438;5.470;2022-11-02T05:36:57;19.80;72.50
13721;DHT22;6932;51.438;5.470;2022-11-02T05:39:23;19.80;72.40
13721;DHT22;6932;51.438;5.470;2022-11-02T05:41:49;19.80;72.30
13721;DHT22;6932;51.438;5.470;2022-11-02T05:44:15;19.80;72.30
13721;DHT22;6932;51.438;5.470;2022-11-02T05:46:42;19.80;72.30
13721;DHT22;6932;51.438;5.470;2022-11-02T05:49:08;19.80;72.30
13721;DHT22;6932;51.438;5.470;2022-11-02T05:51:34;19.80;72.20
13721;DHT22;6932;51.438;5.470;2022-11-02T05:53:59;19.80;72.30
13721;DHT22;6932;51.438;5.470;2022-11-02T05:56:25;19.70;72.20
13721;DHT22;6932;51.438;5.470;2022-11-02T05:58:54;19.70;72.20
13721;DHT22;6932;51.438;5.470;2022-11-02T06:01:20;19.70;72.30
13721;DHT22;6932;51.438;5.470;2022-11-02T06:03:46;19.70;72.40
13721;DHT22;6932;51.438;5.470;2022-11-02T06:06:11;19.70;72.40
13721;DHT22;6932;51.438;5.470;2022-11-02T06:08:38;19.70;72.40
13721;DHT22;6932;51.438;5.470;2022-11-02T06:11:11;19.70;72.50
13721;DHT22;6932;51.438;5.470;2022-11-02T06:13:38;19.60;72.60
13721;DHT22;6932;51.438;5.470;2022-11-02T06:16:07;19.60;72.60
13721;DHT22;6932;51.438;5.470;2022-11-02T06:18:35;19.60;72.70
13721;DHT22;6932;51.438;5.470;2022-11-02T06:21:01;19.60;72.80
13721;DHT22;6932;51.438;5.470;2022-11-02T06:23:28;19.50;72.80
13721;DHT22;6932;51.438;5.470;2022-11-02T06:25:56;19.50;72.80
13721;DHT22;6932;51.438;5.470;2022-11-02T06:28:24;19.50;72.90
13721;DHT22;6932;51.438;5.470;2022-11-02T06:30:50;19.50;73.00
13721;DHT22;6932;51.438;5.470;2022-11-02T06:33:17;19.40;73.10
13721;DHT22;6932;51.438;5.470;2022-11-02T06:35:51;19.40;73.10
13721;DHT22;6932;51.438;5.470;2022-11-02T06:38:20;19.40;73.10
13721;DHT22;6932;51.438;5.470;2022-11-02T06:40:58;19.40;73.10
13721;DHT22;6932;51.438;5.470;2022-11-02T06:43:27;19.30;73.10
13721;DHT22;6932;51.438;5.470;2022-11-02T06:45:54;19.30;73.20
13721;DHT22;6932;51.438;5.470;2022-11-02T06:48:25;19.30;73.10
13721;DHT22;6932;51.438;5.470;2022-11-02T06:50:52;19.30;73.10
13721;DHT22;6932;51.438;5.470;2022-11-02T06:53:17;19.30;73.00
13721;DHT22;6932;51.438;5.470;2022-11-02T06:55:43;19.20;73.00
13721;DHT22;6932;51.438;5.470;2022-11-02T06:58:09;19.10;73.20
13721;DHT22;6932;51.438;5.470;2022-11-02T07:00:35;19.00;73.70
13721;DHT22;6932;51.438;5.470;2022-11-02T07:03:04;18.80;74.10
13721;DHT22;6932;51.438;5.470;2022-11-02T07:05:32;18.70;74.60
13721;DHT22;6932;51.438;5.470;2022-11-02T07:07:58;18.50;76.10
13721;DHT22;6932;51.438;5.470;2022-11-02T07:10:24;18.40;75.70
13721;DHT22;6932;51.438;5.470;2022-11-02T07:12:55;18.30;76.20
13721;DHT22;6932;51.438;5.470;2022-11-02T07:15:23;18.30;76.40
13721;DHT22;6932;51.438;5.470;2022-11-02T07:17:50;18.30;76.80
13721;DHT22;6932;51.438;5.470;2022-11-02T07:20:17;18.30;76.90
13721;DHT22;6932;51.438;5.470;2022-11-02T07:22:57;18.40;77.00
13721;DHT22;6932;51.438;5.470;2022-11-02T07:25:26;18.50;76.70
13721;DHT22;6932;51.438;5.470;2022-11-02T07:27:56;18.70;76.60
13721;DHT22;6932;51.438;5.470;2022-11-02T07:30:24;18.90;76.40
13721;DHT22;6932;51.438;5.470;2022-11-02T07:32:51;19.00;76.10
13721;DHT22;6932;51.438;5.470;2022-11-02T07:35:17;19.10;75.70
13721;DHT22;6932;51.438;5.470;2022-11-02T07:37:44;19.30;75.40
13721;DHT22;6932;51.438;5.470;2022-11-02T07:40:21;19.40;75.20
13721;DHT22;6932;51.438;5.470;2022-11-02T07:42:47;19.60;75.00
13721;DHT22;6932;51.438;5.470;2022-11-02T07:45:13;19.70;74.60
13721;DHT22;6932;51.438;5.470;2022-11-02T07:47:45;19.80;74.40
13721;DHT22;6932;51.438;5.470;2022-11-02T07:50:13;19.90;74.10
13721;DHT22;6932;51.438;5.470;2022-11-02T07:52:48;20.00;74.00
13721;DHT22;6932;51.438;5.470;2022-11-02T07:55:24;20.20;73.60
13721;DHT22;6932;51.438;5.470;2022-11-02T07:58:03;20.30;73.40
13721;DHT22;6932;51.438;5.470;2022-11-02T08:00:35;20.40;73.20
13721;DHT22;6932;51.438;5.470;2022-11-02T08:03:04;20.40;73.00
13721;DHT22;6932;51.438;5.470;2022-11-02T08:05:33;20.50;72.90
13721;DHT22;6932;51.438;5.470;2022-11-02T08:08:03;20.60;72.90
13721;DHT22;6932;51.438;5.470;2022-11-02T08:10:35;20.70;72.80
13721;DHT22;6932;51.438;5.470;2022-11-02T08:13:03;20.70;72.80
13721;DHT22;6932;51.438;5.470;2022-11-02T08:15:29;20.80;72.50
13721;DHT22;6932;51.438;5.470;2022-11-02T08:18:05;20.90;72.50
13721;DHT22;6932;51.438;5.470;2022-11-02T08:20:34;21.00;72.40
13721;DHT22;6932;51.438;5.470;2022-11-02T08:23:04;21.10;72.20
13721;DHT22;6932;51.438;5.470;2022-11-02T08:25:30;21.20;72.20
13721;DHT22;6932;51.438;5.470;2022-11-02T08:27:57;21.20;71.70
13721;DHT22;6932;51.438;5.470;2022-11-02T08:30:31;21.30;71.70
13721;DHT22;6932;51.438;5.470;2022-11-02T08:33:02;21.40;71.80
13721;DHT22;6932;51.438;5.470;2022-11-02T08:35:40;21.50;71.40
13721;DHT22;6932;51.438;5.470;2022-11-02T08:38:16;21.60;71.10
13721;DHT22;6932;51.438;5.470;2022-11-02T08:40:43;21.70;71.00
13721;DHT22;6932;51.438;5.470;2022-11-02T08:43:12;21.70;70.80
13721;DHT22;6932;51.438;5.470;2022-11-02T08:45:42;21.90;70.60
13721;DHT22;6932;51.438;5.470;2022-11-02T08:48:09;21.90;70.20
13721;DHT22;6932;51.438;5.470;2022-11-02T08:50:35;22.00;70.00
13721;DHT22;6932;51.438;5.470;2022-11-02T08:53:01;22.10;69.80
13721;DHT22;6932;51.438;5.470;2022-11-02T08:55:27;22.20;69.80
13721;DHT22;6932;51.438;5.470;2022-11-02T08:57:54;22.20;69.50
13721;DHT22;6932;51.438;5.470;2022-11-02T09:00:24;22.30;69.20
13721;DHT22;6932;51.438;5.470;2022-11-02T09:03:05;22.40;69.10
13721;DHT22;6932;51.438;5.470;2022-11-02T09:05:39;22.50;68.90
13721;DHT22;6932;51.438;5.470;2022-11-02T09:08:20;22.50;68.70
13721;DHT22;6932;51.438;5.470;2022-11-02T09:10:49;22.60;68.30
13721;DHT22;6932;51.438;5.470;2022-11-02T09:13:19;22.70;68.50
13721;DHT22;6932;51.438;5.470;2022-11-02T09:15:51;22.70;68.20
13721;DHT22;6932;51.438;5.470;2022-11-02T09:18:21;22.70;67.80
13721;DHT22;6932;51.438;5.470;2022-11-02T09:20:47;22.80;67.70
13721;DHT22;6932;51.438;5.470;2022-11-02T09:23:18;22.80;67.50
13721;DHT22;6932;51.438;5.470;2022-11-02T09:25:45;22.80;67.50
13721;DHT22;6932;51.438;5.470;2022-11-02T09:28:11;22.90;67.30
13721;DHT22;6932;51.438;5.470;2022-11-02T09:30:39;22.90;67.30
13721;DHT22;6932;51.438;5.470;2022-11-02T09:33:06;22.90;67.20
13721;DHT22;6932;51.438;5.470;2022-11-02T09:35:35;23.00;67.30
13721;DHT22;6932;51.438;5.470;2022-11-02T09:38:08;22.90;67.20
13721;DHT22;6932;51.438;5.470;2022-11-02T09:40:43;23.00;67.20
13721;DHT22;6932;51.438;5.470;2022-11-02T09:43:50;23.00;67.10
13721;DHT22;6932;51.438;5.470;2022-11-02T09:46:26;23.00;67.40
13721;DHT22;6932;51.438;5.470;2022-11-02T09:49:00;23.00;66.80
13721;DHT22;6932;51.438;5.470;2022-11-02T09:51:41;23.00;66.60
13721;DHT22;6932;51.438;5.470;2022-11-02T09:54:39;23.00;66.50
13721;DHT22;6932;51.438;5.470;2022-11-02T09:57:11;23.10;66.40
13721;DHT22;6932;51.438;5.470;2022-11-02T09:59:41;23.10;66.10
13721;DHT22;6932;51.438;5.470;2022-11-02T10:08:25;23.10;66.20
13721;DHT22;6932;51.438;5.470;2022-11-02T10:11:20;23.00;66.20
13721;DHT22;6932;51.438;5.470;2022-11-02T10:14:12;23.10;65.60
13721;DHT22;6932;51.438;5.470;2022-11-02T10:17:16;23.00;65.40
13721;DHT22;6932;51.438;5.470;2022-11-02T10:19:58;22.90;65.40
13721;DHT22;6932;51.438;5.470;2022-11-02T10:22:38;22.80;65.40
13721;DHT22;6932;51.438;5.470;2022-11-02T10:25:09;22.60;64.70
13721;DHT22;6932;51.438;5.470;2022-11-02T10:27:39;22.60;65.40
13721;DHT22;6932;51.438;5.470;2022-11-02T10:30:17;22.50;65.60
13721;DHT22;6932;51.438;5.470;2022-11-02T10:32:49;22.60;65.70
13721;DHT22;6932;51.438;5.470;2022-11-02T10:35:37;22.60;65.80
13721;DHT22;6932;51.438;5.470;2022-11-02T10:51:12;23.20;63.70
13721;DHT22;6932;51.438;5.470;2022-11-02T10:53:45;23.20;63.50
13721;DHT22;6932;51.438;5.470;2022-11-02T10:56:19;23.30;62.70
13721;DHT22;6932;51.438;5.470;2022-11-02T11:01:19;23.40;62.70
13721;DHT22;6932;51.438;5.470;2022-11-02T11:03:59;23.40;63.40
13721;DHT22;6932;51.438;5.470;2022-11-02T11:06:38;23.40;62.70
13721;DHT22;6932;51.438;5.470;2022-11-02T11:09:25;23.50;62.20
13721;DHT22;6932;51.438;5.470;2022-11-02T11:17:17;23.50;62.10
13721;DHT22;6932;51.438;5.470;2022-11-02T11:19:50;23.60;61.50
13721;DHT22;6932;51.438;5.470;2022-11-02T11:22:39;23.60;61.60
13721;DHT22;6932;51.438;5.470;2022-11-02T11:27:53;23.60;61.80
13721;DHT22;6932;51.438;5.470;2022-11-02T11:32:59;23.60;61.40
13721;DHT22;6932;51.438;5.470;2022-11-02T11:35:33;23.50;61.20
13721;DHT22;6932;51.438;5.470;2022-11-02T11:38:06;23.50;61.30
13721;DHT22;6932;51.438;5.470;2022-11-02T11:40:43;23.50;61.50
13721;DHT22;6932;51.438;5.470;2022-11-02T11:43:12;23.50;61.80
13721;DHT22;6932;51.438;5.470;2022-11-02T11:46:02;23.50;62.00
13721;DHT22;6932;51.438;5.470;2022-11-02T11:54:28;23.50;62.20
13721;DHT22;6932;51.438;5.470;2022-11-02T11:59:52;23.40;62.50
13721;DHT22;6932;51.438;5.470;2022-11-02T12:04:59;23.50;62.50
13721;DHT22;6932;51.438;5.470;2022-11-02T12:13:25;23.40;62.50
13721;DHT22;6932;51.438;5.470;2022-11-02T12:18:55;23.30;63.20
13721;DHT22;6932;51.438;5.470;2022-11-02T12:27:43;23.10;63.70
13721;DHT22;6932;51.438;5.470;2022-11-02T12:30:22;23.10;63.60
13721;DHT22;6932;51.438;5.470;2022-11-02T12:35:42;23.10;63.70
13721;DHT22;6932;51.438;5.470;2022-11-02T12:39:13;23.00;63.80
13721;DHT22;6932;51.438;5.470;2022-11-02T12:48:02;23.00;64.10
13721;DHT22;6932;51.438;5.470;2022-11-02T12:56:18;22.80;64.40
13721;DHT22;6932;51.438;5.470;2022-11-02T12:58:47;22.80;64.60
13721;DHT22;6932;51.438;5.470;2022-11-02T13:01:30;22.80;64.80
13721;DHT22;6932;51.438;5.470;2022-11-02T13:06:48;22.70;64.70
13721;DHT22;6932;51.438;5.470;2022-11-02T13:12:43;22.70;64.50
13721;DHT22;6932;51.438;5.470;2022-11-02T13:15:15;22.70;64.10
13721;DHT22;6932;51.438;5.470;2022-11-02T13:17:56;22.60;64.20
13721;DHT22;6932;51.438;5.470;2022-11-02T13:20:24;22.60;64.40
13721;DHT22;6932;51.438;5.470;2022-11-02T13:25:59;22.50;64.50
13721;DHT22;6932;51.438;5.470;2022-11-02T13:31:14;22.60;64.60
13721;DHT22;6932;51.438;5.470;2022-11-02T13:33:51;22.50;64.30
13721;DHT22;6932;51.438;5.470;2022-11-02T13:36:20;22.50;64.30
13721;DHT22;6932;51.438;5.470;2022-11-02T13:38:49;22.50;64.40
13721;DHT22;6932;51.438;5.470;2022-11-02T13:50:19;22.50;64.70
13721;DHT22;6932;51.438;5.470;2022-11-02T13:52:56;22.40;64.60
13721;DHT22;6932;51.438;5.470;2022-11-02T13:58:22;22.40;64.80
13721;DHT22;6932;51.438;5.470;2022-11-02T14:00:52;22.40;65.00
13721;DHT22;6932;51.438;5.470;2022-11-02T14:06:14;22.30;64.90
13721;DHT22;6932;51.438;5.470;2022-11-02T14:08:54;22.30;65.00
13721;DHT22;6932;51.438;5.470;2022-11-02T14:11:26;22.40;65.10
13721;DHT22;6932;51.438;5.470;2022-11-02T14:19:30;22.20;64.60
13721;DHT22;6932;51.438;5.470;2022-11-02T14:22:15;22.30;64.40
13721;DHT22;6932;51.438;5.470;2022-11-02T14:24:51;22.20;64.40
13721;DHT22;6932;51.438;5.470;2022-11-02T14:41:09;22.20;64.30
13721;DHT22;6932;51.438;5.470;2022-11-02T14:49:31;22.00;64.50
13721;DHT22;6932;51.438;5.470;2022-11-02T14:52:02;22.00;64.50
13721;DHT22;6932;51.438;5.470;2022-11-02T14:54:37;22.00;64.60
13721;DHT22;6932;51.438;5.470;2022-11-02T14:57:23;21.90;64.60
13721;DHT22;6932;51.438;5.470;2022-11-02T14:59:56;21.90;64.70
13721;DHT22;6932;51.438;5.470;2022-11-02T15:02:36;21.90;64.80
13721;DHT22;6932;51.438;5.470;2022-11-02T15:05:05;21.80;64.80
13721;DHT22;6932;51.438;5.470;2022-11-02T15:07:35;21.80;64.80
13721;DHT22;6932;51.438;5.470;2022-11-02T15:10:41;21.80;64.70
13721;DHT22;6932;51.438;5.470;2022-11-02T15:18:36;21.70;64.50
13721;DHT22;6932;51.438;5.470;2022-11-02T15:26:35;21.60;64.80
13721;DHT22;6932;51.438;5.470;2022-11-02T15:29:03;21.60;64.30
13721;DHT22;6932;51.438;5.470;2022-11-02T15:31:33;21.60;65.10
13721;DHT22;6932;51.438;5.470;2022-11-02T15:34:10;21.50;64.50
13721;DHT22;6932;51.438;5.470;2022-11-02T15:36:42;21.50;64.60
13721;DHT22;6932;51.438;5.470;2022-11-02T15:39:10;21.50;64.60
13721;DHT22;6932;51.438;5.470;2022-11-02T15:41:44;21.40;64.70
13721;DHT22;6932;51.438;5.470;2022-11-02T15:56:14;21.20;64.40
13721;DHT22;6932;51.438;5.470;2022-11-02T16:02:06;21.20;64.40
13721;DHT22;6932;51.438;5.470;2022-11-02T16:04:52;21.20;64.40
13721;DHT22;6932;51.438;5.470;2022-11-02T16:07:22;21.10;64.30
13721;DHT22;6932;51.438;5.470;2022-11-02T16:09:48;21.10;64.30
13721;DHT22;6932;51.438;5.470;2022-11-02T16:15:09;21.00;64.50
13721;DHT22;6932;51.438;5.470;2022-11-02T16:17:41;21.00;64.60
13721;DHT22;6932;51.438;5.470;2022-11-02T16:20:17;20.90;64.50
13721;DHT22;6932;51.438;5.470;2022-11-02T16:22:59;20.90;64.60
13721;DHT22;6932;51.438;5.470;2022-11-02T16:25:39;20.90;64.70
13721;DHT22;6932;51.438;5.470;2022-11-02T16:28:26;20.80;64.70
13721;DHT22;6932;51.438;5.470;2022-11-02T16:33:48;20.80;64.70
13721;DHT22;6932;51.438;5.470;2022-11-02T16:39:02;20.70;64.80
13721;DHT22;6932;51.438;5.470;2022-11-02T16:41:38;20.70;65.00
13721;DHT22;6932;51.438;5.470;2022-11-02T16:44:16;20.60;64.80
13721;DHT22;6932;51.438;5.470;2022-11-02T16:49:33;20.60;65.10
13721;DHT22;6932;51.438;5.470;2022-11-02T16:52:22;20.60;65.10
13721;DHT22;6932;51.438;5.470;2022-11-02T16:54:53;20.50;65.20
13721;DHT22;6932;51.438;5.470;2022-11-02T16:57:25;20.50;65.20
13721;DHT22;6932;51.438;5.470;2022-11-02T17:00:00;20.50;65.30
13721;DHT22;6932;51.438;5.470;2022-11-02T17:02:36;20.40;65.40
13721;DHT22;6932;51.438;5.470;2022-11-02T17:05:05;20.40;65.40
13721;DHT22;6932;51.438;5.470;2022-11-02T17:10:39;20.40;65.50
13721;DHT22;6932;51.438;5.470;2022-11-02T17:13:14;20.30;65.50
13721;DHT22;6932;51.438;5.470;2022-11-02T17:15:47;20.30;65.60
13721;DHT22;6932;51.438;5.470;2022-11-02T17:18:25;20.30;65.70
13721;DHT22;6932;51.438;5.470;2022-11-02T17:21:15;20.20;65.70
13721;DHT22;6932;51.438;5.470;2022-11-02T17:23:50;20.20;65.80
13721;DHT22;6932;51.438;5.470;2022-11-02T17:31:19;20.10;66.30
13721;DHT22;6932;51.438;5.470;2022-11-02T17:33:57;20.10;66.40
13721;DHT22;6932;51.438;5.470;2022-11-02T17:36:40;20.00;66.40
13721;DHT22;6932;51.438;5.470;2022-11-02T17:39:11;20.00;66.40
13721;DHT22;6932;51.438;5.470;2022-11-02T17:41:38;20.00;66.50
13721;DHT22;6932;51.438;5.470;2022-11-02T17:44:24;20.00;66.40
13721;DHT22;6932;51.438;5.470;2022-11-02T17:46:49;19.90;66.40
13721;DHT22;6932;51.438;5.470;2022-11-02T17:49:15;19.90;66.40
13721;DHT22;6932;51.438;5.470;2022-11-02T17:51:41;19.90;66.50
13721;DHT22;6932;51.438;5.470;2022-11-02T17:54:14;19.90;66.60
13721;DHT22;6932;51.438;5.470;2022-11-02T17:56:40;19.90;66.50
13721;DHT22;6932;51.438;5.470;2022-11-02T17:59:06;19.80;66.60
13721;DHT22;6932;51.438;5.470;2022-11-02T18:01:32;19.80;66.70
13721;DHT22;6932;51.438;5.470;2022-11-02T18:03:58;19.80;66.70
13721;DHT22;6932;51.438;5.470;2022-11-02T18:06:24;19.80;66.80
13721;DHT22;6932;51.438;5.470;2022-11-02T18:08:52;19.80;66.80
13721;DHT22;6932;51.438;5.470;2022-11-02T18:11:38;19.70;66.90
13721;DHT22;6932;51.438;5.470;2022-11-02T18:14:04;19.70;67.00
13721;DHT22;6932;51.438;5.470;2022-11-02T18:16:30;19.70;67.00
13721;DHT22;6932;51.438;5.470;2022-11-02T18:18:56;19.70;67.10
13721;DHT22;6932;51.438;5.470;2022-11-02T18:21:22;19.60;67.00
13721;DHT22;6932;51.438;5.470;2022-11-02T18:23:48;19.60;67.00
13721;DHT22;6932;51.438;5.470;2022-11-02T18:26:15;19.60;67.00
13721;DHT22;6932;51.438;5.470;2022-11-02T18:28:41;19.60;67.10
13721;DHT22;6932;51.438;5.470;2022-11-02T18:31:07;19.60;67.00
13721;DHT22;6932;51.438;5.470;2022-11-02T18:33:33;19.60;67.10
13721;DHT22;6932;51.438;5.470;2022-11-02T18:36:05;19.50;67.10
13721;DHT22;6932;51.438;5.470;2022-11-02T18:38:33;19.50;67.10
13721;DHT22;6932;51.438;5.470;2022-11-02T18:41:06;19.50;67.10
13721;DHT22;6932;51.438;5.470;2022-11-02T18:43:53;19.50;67.20
13721;DHT22;6932;51.438;5.470;2022-11-02T18:46:25;19.50;67.20
13721;DHT22;6932;51.438;5.470;2022-11-02T18:48:52;19.50;67.30
13721;DHT22;6932;51.438;5.470;2022-11-02T18:51:19;19.50;67.30
13721;DHT22;6932;51.438;5.470;2022-11-02T18:53:50;19.50;67.30
13721;DHT22;6932;51.438;5.470;2022-11-02T18:56:17;19.50;67.30
13721;DHT22;6932;51.438;5.470;2022-11-02T18:58:47;19.50;67.30
13721;DHT22;6932;51.438;5.470;2022-11-02T19:01:14;19.50;67.40
13721;DHT22;6932;51.438;5.470;2022-11-02T19:03:40;19.50;67.40
13721;DHT22;6932;51.438;5.470;2022-11-02T19:06:06;19.50;67.40
13721;DHT22;6932;51.438;5.470;2022-11-02T19:08:51;19.50;67.50
13721;DHT22;6932;51.438;5.470;2022-11-02T19:11:35;19.50;67.50
13721;DHT22;6932;51.438;5.470;2022-11-02T19:14:01;19.40;67.60
13721;DHT22;6932;51.438;5.470;2022-11-02T19:16:27;19.40;67.70
13721;DHT22;6932;51.438;5.470;2022-11-02T19:18:52;19.40;67.70
13721;DHT22;6932;51.438;5.470;2022-11-02T19:21:18;19.40;67.80
13721;DHT22;6932;51.438;5.470;2022-11-02T19:23:44;19.40;67.90
13721;DHT22;6932;51.438;5.470;2022-11-02T19:26:10;19.40;68.00
13721;DHT22;6932;51.438;5.470;2022-11-02T19:28:36;19.40;68.10
13721;DHT22;6932;51.438;5.470;2022-11-02T19:31:05;19.40;68.20
13721;DHT22;6932;51.438;5.470;2022-11-02T19:33:32;19.40;68.30
13721;DHT22;6932;51.438;5.470;2022-11-02T19:35:59;19.40;69.00